Blackrock, Ireland

8:19 AM IST on September 05, 2015 (GMT +0100)
Blackrock, Co. Dublin | | Change Station
CLOSE
Current Station
Personal Weather Station
Location: Dublin, LEINSTER
Elevation: 131 ft
Nearby Weather Stations

Elev 131 ft 53.30 °N, 6.18 °W | Updated 12 minutes ago

Partly Cloudy
Partly Cloudy
50.2 °F
Feels Like 50.2 °F
N
3.8
Wind Variable Wind from NNW
Gusts 4.5 mph

Today
High -- | Low -- °F
--% Chance of Precip.
Yesterday
High -- | Low -- °F
Precip. -- in
6:40 AM 8:05 PM
Waning Gibbous, 51% visible
Pressure 30.27 in
Visibility 6.2 miles
Clouds Few 2400 ft
Dew Point 45 °F
Humidity 81%
Rainfall 0.00 in
Snow Depth Not available.
UV 0 out of 12
Pollen Not available.
Air Quality Not available.
Flu Activity Not available.
METAR EIDW 050700Z 33011KT 9999 FEW024 09/06 Q1025 NOSIG
Pressure 30.27 in
Visibility 6.2 miles
Clouds Few 2400 ft
Dew Point 45 °F
Humidity 81%
Rainfall 0.00 in
Snow Depth Not available.
UV 0 out of 12
Pollen Not available.
Air Quality Not available.
Flu Activity Not available.
METAR EIDW 050700Z 33011KT 9999 FEW024 09/06 Q1025 NOSIG

10-Day Weather Forecast

×

Almanac

Astronomy

Sep. 05, 2015 Rise Set
Actual Time
Civil Twilight
Nautical Twilight
Astronomical Twilight
Moon
Length of Visible Light
Length of Day
Tomorrow will be .
, % of the Moon is Illuminated

Today's Extremes

Country Highs Country Lows

Community

WunderPhotos

Upload Photos

1,852,430 photos uploaded!

WunderBlogs® & News

Nearby

Air Quality

  Air Quality AQ Index Pollutant
Not available.

Snow Depth

Station Depth Elevation

Earthquake Activity

City Distance Mag. Time & Date
Minimum magnitude displayed is 2.5.

Coastal Water Temperatures

Place Temperature

Stations

Nearby Weather Stations

Station Location Temp. Windchill Dew Point Humidity Wind Precip. Elev Updated Type